Jharsuguda, India
Current Conditions -  °F | °C
As of 12:30 PM on Monday 20 Oct 2014 (Local Time) from VIBN Reporting Station
Haze Haze  
Wind Chill: 86°   Ceiling: Unl
Heat Index: 88°   Visibility: 2.5mi
Dew Point: 66°   Wind: 0mph
Humidity: 51%   Direction: NA
Pressure: 29.91"   Gusts: NA
Location:  21.86°N, 84.02°E
Report Text: VIBN 200730Z 00000KT 4000 HZ SCT025 30/19 Q1013
Loading
Personal Weather Stations






























Interactive Weather Map
Tropical Storm Tracking
New forecast layout! Learn more

10-Day Weather Forecast

Advertisements
Track Severe Weather on mobile